createdAt,value
2022-11-24T00:01:40.026Z,3.80
2022-11-24T00:05:03.832Z,2.80
2022-11-24T00:08:25.949Z,2.75
2022-11-24T00:11:48.418Z,2.47
2022-11-24T00:15:10.951Z,2.65
2022-11-24T00:18:32.953Z,2.78
2022-11-24T00:21:56.707Z,3.80
2022-11-24T00:25:18.861Z,2.80
2022-11-24T00:28:42.054Z,3.60
2022-11-24T00:32:06.272Z,3.30
2022-11-24T00:35:28.288Z,2.58
2022-11-24T00:38:55.329Z,2.90
2022-11-24T00:42:17.502Z,3.05
2022-11-24T00:45:39.819Z,2.50
2022-11-24T00:49:02.205Z,2.60
2022-11-24T00:52:24.119Z,2.75
2022-11-24T00:55:50.788Z,3.17
2022-11-24T00:59:12.939Z,3.35
2022-11-24T01:02:35.176Z,2.85
2022-11-24T01:05:57.320Z,3.05
2022-11-24T01:09:19.547Z,2.65
2022-11-24T01:12:43.236Z,2.53
2022-11-24T01:16:05.371Z,3.45
2022-11-24T01:19:27.531Z,2.67
2022-11-24T01:22:50.378Z,4.00
2022-11-24T01:26:14.878Z,2.45
2022-11-24T01:29:38.561Z,2.55
2022-11-24T01:33:00.670Z,3.35
2022-11-24T01:36:23.707Z,2.30
2022-11-24T01:39:46.038Z,2.83
2022-11-24T01:43:17.994Z,2.97
2022-11-24T01:46:44.978Z,2.65
2022-11-24T01:50:07.759Z,3.58
2022-11-24T01:53:29.893Z,2.58
2022-11-24T01:56:56.678Z,3.45
2022-11-24T02:00:22.548Z,3.10
2022-11-24T02:03:49.315Z,3.63
2022-11-24T02:07:14.331Z,3.65
2022-11-24T02:10:39.808Z,3.20
2022-11-24T02:14:02.151Z,3.28
2022-11-24T02:17:24.377Z,3.30
2022-11-24T02:20:48.048Z,2.85
2022-11-24T02:24:16.712Z,4.05
2022-11-24T02:27:40.111Z,4.03
2022-11-24T02:31:03.741Z,2.83
2022-11-24T02:34:25.575Z,3.38
2022-11-24T02:37:47.690Z,2.83
2022-11-24T02:41:14.845Z,3.95
2022-11-24T02:44:42.400Z,3.63
2022-11-24T02:48:04.955Z,3.67
2022-11-24T02:51:29.887Z,3.30
2022-11-24T02:54:51.920Z,4.07
2022-11-24T02:58:15.129Z,4.00
2022-11-24T03:01:38.642Z,2.92
2022-11-24T03:05:00.573Z,3.50
2022-11-24T03:08:22.927Z,2.95
2022-11-24T03:11:44.894Z,3.55
2022-11-24T03:15:07.913Z,3.60
2022-11-24T03:18:31.132Z,3.58
2022-11-24T03:21:53.112Z,3.58
2022-11-24T03:25:15.383Z,3.65
2022-11-24T03:28:37.500Z,4.57
2022-11-24T03:32:00.072Z,3.55
2022-11-24T03:35:24.495Z,4.68
2022-11-24T03:38:47.159Z,4.45
2022-11-24T03:42:09.217Z,4.38
2022-11-24T03:45:46.127Z,4.07
2022-11-24T03:49:08.531Z,4.68
2022-11-24T03:52:32.022Z,3.38
2022-11-24T03:55:54.025Z,4.45
2022-11-24T03:59:16.256Z,4.53
2022-11-24T04:02:38.068Z,5.50
2022-11-24T04:06:00.162Z,4.68
2022-11-24T04:09:23.953Z,3.80
2022-11-24T04:12:46.109Z,3.83
2022-11-24T04:16:09.165Z,3.97
2022-11-24T04:19:31.302Z,3.42
2022-11-24T04:22:53.599Z,4.38
2022-11-24T04:26:17.157Z,3.92
2022-11-24T04:29:39.091Z,3.58
2022-11-24T04:33:01.400Z,4.07
2022-11-24T04:36:23.575Z,4.57
2022-11-24T04:39:46.671Z,4.43
2022-11-24T04:43:10.788Z,4.45
2022-11-24T04:46:32.813Z,4.40
2022-11-24T04:49:55.382Z,4.15
2022-11-24T04:53:17.642Z,3.92
2022-11-24T04:56:39.941Z,4.72
2022-11-24T05:00:04.312Z,4.05
2022-11-24T05:03:26.586Z,5.20
2022-11-24T05:06:48.835Z,5.07
2022-11-24T05:10:28.454Z,5.20
2022-11-24T05:13:50.707Z,4.53
2022-11-24T05:17:14.423Z,4.90
2022-11-24T05:20:36.772Z,5.07
2022-11-24T05:23:58.716Z,4.18
2022-11-24T05:27:20.879Z,4.25
2022-11-24T05:30:43.182Z,4.88
2022-11-24T05:34:06.497Z,4.95
2022-11-24T05:37:30.421Z,5.53
2022-11-24T05:40:52.622Z,6.18
2022-11-24T05:44:14.589Z,5.68
2022-11-24T05:47:37.021Z,6.22
2022-11-24T05:51:03.130Z,6.18
2022-11-24T05:54:27.408Z,5.80
2022-11-24T05:57:49.557Z,5.05
2022-11-24T06:01:11.024Z,4.95
2022-11-24T06:04:33.459Z,5.22
2022-11-24T06:07:57.394Z,6.05
2022-11-24T06:11:19.269Z,5.90
2022-11-24T06:14:41.501Z,5.13
2022-11-24T06:18:03.145Z,4.63
2022-11-24T06:21:25.116Z,5.20
2022-11-24T06:24:50.734Z,6.32
2022-11-24T06:28:12.629Z,5.68
2022-11-24T06:31:35.224Z,7.13
2022-11-24T06:34:57.297Z,6.03
2022-11-24T06:38:22.993Z,6.75
2022-11-24T06:41:47.479Z,6.20
2022-11-24T06:45:10.253Z,6.10
2022-11-24T06:48:32.640Z,6.78
2022-11-24T06:51:56.369Z,5.97
2022-11-24T06:55:17.933Z,6.43
2022-11-24T06:58:49.507Z,6.72
2022-11-24T07:02:11.709Z,7.07
2022-11-24T07:05:34.738Z,5.20
2022-11-24T07:08:56.415Z,6.55
2022-11-24T07:12:18.652Z,5.55
2022-11-24T07:15:41.986Z,5.85
2022-11-24T07:19:06.074Z,6.22
2022-11-24T07:22:27.827Z,6.95
2022-11-24T07:25:49.899Z,6.20
2022-11-24T07:29:11.995Z,5.57
2022-11-24T07:32:35.636Z,6.18
2022-11-24T07:36:01.004Z,6.03
2022-11-24T07:39:22.760Z,6.93
2022-11-24T07:42:44.919Z,6.95
2022-11-24T07:46:08.969Z,6.38
2022-11-24T07:49:32.155Z,5.47
2022-11-24T07:52:54.276Z,6.65
2022-11-24T07:56:16.312Z,6.35
2022-11-24T07:59:37.988Z,6.00
2022-11-24T08:02:59.844Z,6.63
2022-11-24T08:06:26.528Z,6.65
2022-11-24T08:09:52.355Z,5.93
2022-11-24T08:13:14.152Z,6.43
2022-11-24T08:16:36.139Z,6.53
2022-11-24T08:19:57.896Z,5.35
2022-11-24T08:23:21.252Z,7.22
2022-11-24T08:26:45.106Z,7.75
2022-11-24T08:30:08.172Z,6.47
2022-11-24T08:33:30.671Z,7.03
2022-11-24T08:36:52.927Z,7.32
2022-11-24T08:40:16.337Z,6.03
2022-11-24T08:43:38.858Z,6.65
2022-11-24T08:47:00.978Z,6.28
2022-11-24T08:50:23.451Z,6.07
2022-11-24T08:53:45.513Z,7.22
2022-11-24T08:57:08.438Z,5.65
2022-11-24T09:00:30.118Z,6.63
2022-11-24T09:03:52.724Z,5.45
2022-11-24T09:07:14.820Z,6.50
2022-11-24T09:10:37.395Z,7.20
2022-11-24T09:14:00.881Z,8.30
2022-11-24T09:17:23.063Z,7.43
2022-11-24T09:21:02.856Z,7.13
2022-11-24T09:24:24.839Z,6.40
2022-11-24T09:27:46.730Z,6.90
2022-11-24T09:31:12.804Z,8.30
2022-11-24T09:34:34.560Z,8.32
2022-11-24T09:37:56.815Z,5.63
2022-11-24T09:42:00.192Z,5.70
2022-11-24T09:46:04.042Z,7.03
2022-11-24T09:49:32.028Z,5.82
2022-11-24T09:53:01.522Z,7.75
2022-11-24T09:56:25.370Z,6.18
2022-11-24T09:59:47.411Z,6.38
2022-11-24T10:03:18.222Z,4.93
2022-11-24T10:06:50.264Z,6.70
2022-11-24T10:10:24.251Z,7.47
2022-11-24T10:14:06.801Z,5.72
2022-11-24T10:17:45.571Z,6.75
2022-11-24T10:21:28.165Z,4.78
2022-11-24T10:25:17.571Z,7.18
2022-11-24T10:28:45.926Z,6.45
2022-11-24T10:32:15.095Z,6.03
2022-11-24T10:35:45.573Z,5.88
2022-11-24T10:39:16.976Z,6.55
2022-11-24T10:42:40.446Z,6.65
2022-11-24T10:46:13.056Z,5.63
2022-11-24T10:49:35.530Z,6.35
2022-11-24T10:53:04.727Z,6.20
2022-11-24T10:56:26.878Z,7.38
2022-11-24T10:59:50.189Z,6.45
2022-11-24T11:03:18.851Z,7.05
2022-11-24T11:06:40.702Z,6.78
2022-11-24T11:10:21.875Z,6.90
2022-11-24T11:14:03.431Z,7.85
2022-11-24T11:17:37.094Z,7.15
2022-11-24T11:21:02.589Z,6.80
2022-11-24T11:24:25.037Z,7.35
2022-11-24T11:27:48.448Z,7.43
2022-11-24T11:31:25.268Z,8.05
2022-11-24T11:34:49.726Z,5.90
2022-11-24T11:38:12.498Z,6.00
2022-11-24T11:41:37.891Z,6.90
2022-11-24T11:45:06.720Z,6.47
2022-11-24T11:48:40.633Z,5.73
2022-11-24T11:56:14.848Z,5.88
2022-11-24T11:59:55.224Z,7.63
2022-11-24T12:03:44.543Z,5.97
2022-11-24T12:07:31.798Z,7.90
2022-11-24T12:11:03.499Z,6.50
2022-11-24T12:14:33.721Z,7.43
2022-11-24T12:18:07.006Z,6.97
2022-11-24T12:21:37.091Z,6.35
2022-11-24T12:25:08.335Z,7.28
2022-11-24T12:28:43.536Z,7.32
2022-11-24T12:32:12.947Z,6.43
2022-11-24T12:35:39.765Z,7.13
2022-11-24T12:39:07.884Z,6.57
2022-11-24T12:42:42.656Z,6.50
2022-11-24T12:46:15.661Z,7.07
2022-11-24T12:49:48.717Z,6.85
2022-11-24T12:53:15.244Z,6.65
2022-11-24T12:56:44.736Z,6.32
2022-11-24T13:00:16.304Z,7.00
2022-11-24T13:03:51.760Z,6.88
2022-11-24T13:07:19.546Z,8.38
2022-11-24T13:10:58.061Z,8.00
2022-11-24T13:14:23.633Z,7.10
2022-11-24T13:18:05.552Z,6.50
2022-11-24T13:21:47.419Z,6.22
2022-11-24T13:25:20.300Z,6.85
2022-11-24T13:29:09.278Z,6.93
2022-11-24T13:32:48.482Z,7.75
2022-11-24T13:36:32.939Z,5.57
2022-11-24T13:39:56.043Z,7.55
2022-11-24T13:43:23.698Z,5.70
2022-11-24T13:47:03.499Z,6.97
2022-11-24T13:51:04.993Z,5.68
2022-11-24T13:54:29.855Z,5.75
2022-11-24T13:57:53.883Z,6.43
2022-11-24T14:01:21.550Z,5.97
2022-11-24T14:04:45.844Z,5.65
2022-11-24T14:08:17.757Z,6.57
2022-11-24T14:11:41.696Z,7.53
2022-11-24T14:15:23.896Z,6.28
2022-11-24T14:18:47.335Z,8.73
2022-11-24T14:22:17.085Z,8.57
2022-11-24T14:25:39.922Z,7.68
2022-11-24T14:29:15.568Z,6.80
2022-11-24T14:32:37.970Z,5.95
2022-11-24T14:35:59.911Z,7.38
2022-11-24T14:39:24.226Z,8.32
2022-11-24T14:42:51.920Z,8.15
2022-11-24T14:46:21.512Z,6.88
2022-11-24T14:49:44.758Z,6.07
2022-11-24T14:53:15.142Z,6.80
2022-11-24T14:56:39.425Z,6.82
2022-11-24T15:00:29.772Z,6.75
2022-11-24T15:08:03.947Z,8.07
2022-11-24T15:11:25.959Z,6.47
2022-11-24T15:14:52.538Z,6.50
2022-11-24T15:18:27.482Z,7.72
2022-11-24T15:21:50.969Z,6.53
2022-11-24T15:25:33.972Z,8.38
2022-11-24T15:28:55.923Z,7.55
2022-11-24T15:32:18.222Z,6.65
2022-11-24T15:35:40.410Z,6.28
2022-11-24T15:39:03.448Z,7.55
2022-11-24T15:42:25.388Z,7.32
2022-11-24T15:45:50.520Z,6.57
2022-11-24T15:49:12.723Z,7.28
2022-11-24T15:52:35.114Z,7.03
2022-11-24T15:55:58.971Z,6.78
2022-11-24T15:59:21.433Z,7.55
2022-11-24T16:02:43.413Z,5.45
2022-11-24T16:06:05.833Z,10.25
2022-11-24T16:09:28.093Z,7.63
2022-11-24T16:12:51.638Z,6.50
2022-11-24T16:16:15.787Z,6.05
2022-11-24T16:19:41.575Z,9.10
2022-11-24T16:23:05.088Z,8.27
2022-11-24T16:26:26.964Z,8.48
2022-11-24T16:29:50.469Z,9.07
2022-11-24T16:33:12.499Z,7.60
2022-11-24T16:36:34.917Z,8.30
2022-11-24T16:39:57.659Z,7.38
2022-11-24T16:43:19.874Z,10.10
2022-11-24T16:46:44.787Z,7.68
2022-11-24T16:50:08.595Z,9.07
2022-11-24T16:53:30.586Z,9.38
2022-11-24T16:56:53.229Z,7.20
2022-11-24T17:00:16.483Z,8.02
2022-11-24T17:03:40.595Z,6.82
2022-11-24T17:07:02.909Z,7.38
2022-11-24T17:10:25.056Z,8.52
2022-11-24T17:13:47.588Z,9.00
2022-11-24T17:17:09.503Z,8.98
2022-11-24T17:20:33.965Z,7.35
2022-11-24T17:23:56.906Z,9.35
2022-11-24T17:27:18.515Z,8.63
2022-11-24T17:30:40.656Z,7.70
2022-11-24T17:34:04.493Z,8.57
2022-11-24T17:37:27.707Z,8.13
2022-11-24T17:40:49.658Z,8.80
2022-11-24T17:44:12.782Z,8.38
2022-11-24T17:47:34.466Z,7.45
2022-11-24T17:51:04.208Z,8.20
2022-11-24T17:58:09.884Z,6.90
2022-11-24T18:01:32.797Z,8.38
2022-11-24T18:04:54.809Z,6.95
2022-11-24T18:08:17.171Z,8.30
2022-11-24T18:11:40.731Z,9.43
2022-11-24T18:15:02.764Z,7.90
2022-11-24T18:18:24.874Z,8.60
2022-11-24T18:21:47.097Z,10.80
2022-11-24T18:25:09.903Z,9.70
2022-11-24T18:28:33.486Z,10.77
2022-11-24T18:31:55.375Z,8.55
2022-11-24T18:35:17.629Z,8.38
2022-11-24T18:38:39.745Z,6.97
2022-11-24T18:42:01.867Z,7.20
2022-11-24T18:45:25.202Z,6.32
2022-11-24T18:48:48.524Z,7.90
2022-11-24T18:52:10.109Z,7.55
2022-11-24T18:55:31.636Z,7.05
2022-11-24T18:58:54.706Z,9.00
2022-11-24T19:02:17.961Z,7.90
2022-11-24T19:05:41.310Z,7.03
2022-11-24T19:09:05.956Z,7.53
2022-11-24T19:12:27.991Z,6.07
2022-11-24T19:15:50.175Z,6.85
2022-11-24T19:19:14.010Z,7.03
2022-11-24T19:22:36.780Z,6.45
2022-11-24T19:26:04.418Z,7.97
2022-11-24T19:29:26.499Z,9.13
2022-11-24T19:32:48.400Z,6.75
2022-11-24T19:36:13.890Z,7.78
2022-11-24T19:39:35.708Z,6.95
2022-11-24T19:42:57.768Z,6.57
2022-11-24T19:46:20.739Z,6.85
2022-11-24T19:49:42.762Z,7.55
2022-11-24T19:53:06.522Z,7.05
2022-11-24T19:56:29.917Z,6.55
2022-11-24T19:59:51.994Z,6.05
2022-11-24T20:03:14.174Z,6.30
2022-11-24T20:06:38.144Z,6.78
2022-11-24T20:10:06.290Z,7.57
2022-11-24T20:13:29.637Z,6.35
2022-11-24T20:16:51.930Z,6.88
2022-11-24T20:20:14.702Z,5.63
2022-11-24T20:23:36.722Z,7.15
2022-11-24T20:27:00.618Z,7.15
2022-11-24T20:30:22.548Z,6.53
2022-11-24T20:33:46.359Z,6.45
2022-11-24T20:37:13.386Z,7.15
2022-11-24T20:40:34.932Z,7.13
2022-11-24T20:44:01.051Z,5.70
2022-11-24T20:47:22.909Z,6.68
2022-11-24T20:50:50.965Z,5.25
2022-11-24T20:54:14.205Z,5.40
2022-11-24T20:57:36.010Z,5.32
2022-11-24T21:01:04.697Z,5.53
2022-11-24T21:04:28.312Z,6.40
2022-11-24T21:07:50.369Z,5.30
2022-11-24T21:11:14.116Z,5.63
2022-11-24T21:14:35.844Z,7.45
2022-11-24T21:17:59.276Z,7.68
2022-11-24T21:21:22.386Z,7.28
2022-11-24T21:24:44.344Z,7.85
2022-11-24T21:28:07.899Z,7.45
2022-11-24T21:31:30.029Z,7.03
2022-11-24T21:34:53.668Z,6.03
2022-11-24T21:38:16.390Z,5.93
2022-11-24T21:41:38.256Z,8.65
2022-11-24T21:45:02.225Z,5.78
2022-11-24T21:48:23.909Z,5.93
2022-11-24T21:51:47.427Z,6.13
2022-11-24T21:55:09.923Z,6.82
2022-11-24T21:58:31.817Z,6.60
2022-11-24T22:01:54.155Z,7.18
2022-11-24T22:05:16.341Z,7.18
2022-11-24T22:08:40.094Z,4.90
2022-11-24T22:12:02.410Z,7.38
2022-11-24T22:15:24.236Z,5.82
2022-11-24T22:18:47.060Z,8.13
2022-11-24T22:22:08.963Z,6.28
2022-11-24T22:25:31.899Z,6.07
2022-11-24T22:28:54.936Z,5.40
2022-11-24T22:32:16.849Z,5.30
2022-11-24T22:35:38.808Z,5.75
2022-11-24T22:39:03.293Z,5.95
2022-11-24T22:42:26.489Z,5.90
2022-11-24T22:45:48.715Z,5.80
2022-11-24T22:49:11.314Z,6.72
2022-11-24T22:52:33.918Z,6.65
2022-11-24T22:55:55.922Z,6.63
2022-11-24T22:59:19.258Z,6.28
2022-11-24T23:02:41.405Z,6.43
2022-11-24T23:06:04.413Z,5.97
2022-11-24T23:09:26.479Z,6.30
2022-11-24T23:12:50.004Z,5.43
2022-11-24T23:16:16.090Z,5.93
2022-11-24T23:19:38.284Z,4.57
2022-11-24T23:23:02.789Z,5.43
2022-11-24T23:26:26.738Z,6.53
2022-11-24T23:29:48.411Z,5.57
2022-11-24T23:33:11.853Z,5.20
2022-11-24T23:36:34.337Z,6.82
2022-11-24T23:39:56.130Z,7.07
2022-11-24T23:43:17.818Z,8.57
2022-11-24T23:46:39.829Z,6.47
2022-11-24T23:50:02.916Z,8.00
2022-11-24T23:53:24.719Z,5.95
2022-11-24T23:56:46.319Z,6.30
